Carolina, WV (26563)

9:12 PM EDT on March 27, 2015 (GMT -0400)
Pleasant Valley Station | | Change Station
CLOSE
Current Station
Personal Weather Station
Location: Fairmont, WV
Elevation: 1047 ft
Nearby Weather Stations

Elev 1047 ft 39.44 °N, 80.17 °W | Updated 3 minutes ago

Overcast
Overcast
30.4 °F
Feels Like 30 °F
N
0.0
Wind Variable Wind from WNW
Gusts 12.0 mph

Today
High -- | Low -- °F
--% Chance of Precip.
Yesterday
High -- | Low -- °F
Precip. -- in
7:13 AM 7:39 PM
First Quarter, 57% visible
Pressure 29.94 in
Visibility 4.0 miles
Clouds Mostly Cloudy 1600 ft
Overcast 2300 ft
Windchill 30 °F
Dew Point 26 °F
Humidity 82%
Rainfall 0.00 in
Snow Depth Not available.
UV 0 out of 12
Pollen 6.20 out of 12
Air Quality Not available.
Flu Activity Not available.
METAR KCKB 280053Z 34008KT 4SM -SN BR BKN016 OVC023 M01/M03 A2992 RMK AO2 SLP137 P0000 T10111033

More Conditions Fewer Conditions

Pressure 29.94 in
Visibility 4.0 miles
Clouds Mostly Cloudy 1600 ft
Overcast 2300 ft
Windchill 30 °F
Dew Point 26 °F
Humidity 82%
Rainfall 0.00 in
Snow Depth Not available.
UV 0 out of 12
Pollen 6.20 out of 12
Air Quality Not available.
Flu Activity Not available.
METAR KCKB 280053Z 34008KT 4SM -SN BR BKN016 OVC023 M01/M03 A2992 RMK AO2 SLP137 P0000 T10111033

More Conditions Fewer Conditions

10-Day Weather Forecast

Almanac

Astronomy

Mar. 27, 2015 Rise Set
Actual Time
Civil Twilight
Nautical Twilight
Astronomical Twilight
Moon
Length of Visible Light
Length of Day
Tomorrow will be .
, % of the Moon is Illuminated

Today's Extremes

State Highs State Lows

Community

WunderPhotos

Upload Photos

1,808,905 photos uploaded!

WunderBlogs® & News

Nearby

Air Quality

  Air Quality AQ Index Pollutant
Not available.

Snow Depth

Station Depth Elevation

Earthquake Activity

City Distance Mag. Time & Date
Minimum magnitude displayed is 2.5.

Coastal Water Temperatures

Place Temperature

Stations

Nearby Weather Stations

Station Location Temp. Windchill Dew Point Humidity Wind Precip. Elev Updated Type